Time;durP1;ratioP1;P1;durP2;ratioP2;P2;SDS_P1;SDS_P2;PMS_P1;PMS_P2;Temp;Humidity;BMP_temperature;BMP_pressure;BME280_temperature;BME280_humidity;BME280_pressure;Samples;Min_cycle;Max_cycle;Signal;HPM_P1;HPM_P2
2022/04/06 00:00:31;;;;;;;15.80;14.20;;;;;;;10.51;97.16;97492.38;4186948;28;20674;-88
2022/04/06 00:02:35;;;;;;;19.53;14.93;;;;;;;10.51;97.62;97487.16;4156246;28;21316;-88
2022/04/06 00:04:39;;;;;;;15.03;13.50;;;;;;;10.50;98.35;97488.09;4170793;28;20646;-88
2022/04/06 00:06:42;;;;;;;16.83;13.93;;;;;;;10.48;97.93;97483.00;4163102;28;20640;-89
2022/04/06 00:08:53;;;;;;;15.67;13.10;;;;;;;10.48;97.51;97480.41;4150889;28;20653;-89
2022/04/06 00:10:56;;;;;;;14.13;12.70;;;;;;;10.48;96.99;97479.59;4167369;28;20748;-88
2022/04/06 00:13:00;;;;;;;14.67;13.17;;;;;;;10.47;96.93;97477.91;4166056;28;21056;-89
2022/04/06 00:15:08;;;;;;;14.80;13.30;;;;;;;10.49;98.27;97471.63;4153598;28;20627;-88
2022/04/06 00:17:12;;;;;;;14.70;13.20;;;;;;;10.50;97.28;97472.47;4171410;28;20641;-88
2022/04/06 00:19:16;;;;;;;16.50;14.70;;;;;;;10.49;98.00;97466.44;4186530;28;20647;-88
2022/04/06 00:21:20;;;;;;;16.60;14.80;;;;;;;10.48;98.02;97466.53;4163325;28;20731;-88
2022/04/06 00:23:23;;;;;;;15.23;13.37;;;;;;;10.41;97.85;97463.56;4170080;28;20740;-88
2022/04/06 00:25:27;;;;;;;14.47;12.67;;;;;;;10.40;97.16;97469.75;4150313;28;20693;-89
2022/04/06 00:27:30;;;;;;;14.40;12.90;;;;;;;10.40;97.04;97468.91;4157788;28;20708;-88
2022/04/06 00:29:35;;;;;;;14.17;12.47;;;;;;;10.34;97.54;97464.16;4153715;28;20678;-88
2022/04/06 00:31:39;;;;;;;13.87;11.70;;;;;;;10.31;98.05;97463.56;4152620;28;20705;-88
2022/04/06 00:33:42;;;;;;;16.00;12.77;;;;;;;10.28;98.12;97461.19;4153593;28;20678;-89
2022/04/06 00:35:45;;;;;;;14.17;12.67;;;;;;;10.30;99.06;97454.09;4150828;28;20665;-89
2022/04/06 00:37:48;;;;;;;12.63;11.33;;;;;;;10.32;97.90;97453.84;4155365;28;21099;-89
2022/04/06 00:39:51;;;;;;;15.70;13.13;;;;;;;10.32;98.09;97453.84;4169642;28;20638;-89
2022/04/06 00:41:55;;;;;;;13.93;12.40;;;;;;;10.36;98.90;97457.88;4168186;28;20726;-89
2022/04/06 00:44:15;;;;;;;14.33;12.40;;;;;;;10.38;97.55;97455.97;4170783;28;20693;-89
2022/04/06 00:46:18;;;;;;;12.63;11.33;;;;;;;10.40;98.21;97451.50;4151037;28;20648;-89
2022/04/06 00:48:22;;;;;;;11.97;10.77;;;;;;;10.42;98.43;97451.38;4155370;28;22191;-89
2022/04/06 00:50:26;;;;;;;13.07;11.77;;;;;;;10.43;98.02;97446.06;4156829;28;20638;-89
2022/04/06 00:52:30;;;;;;;13.43;11.30;;;;;;;10.45;97.99;97444.13;4164928;28;20998;-88
2022/04/06 00:54:34;;;;;;;13.63;12.17;;;;;;;10.49;98.07;97447.31;4148831;28;20669;-88
2022/04/06 00:56:38;;;;;;;14.00;12.57;;;;;;;10.48;98.46;97437.88;4184979;28;20651;-88
2022/04/06 00:58:41;;;;;;;12.23;10.77;;;;;;;10.47;98.07;97441.41;4170932;28;21198;-89
2022/04/06 01:00:45;;;;;;;12.93;11.53;;;;;;;10.49;97.58;97440.34;4152653;28;20646;-88
2022/04/06 01:02:48;;;;;;;13.00;10.20;;;;;;;10.52;97.39;97434.06;4167738;28;20633;-89
2022/04/06 01:04:53;;;;;;;13.70;10.63;;;;;;;10.54;97.42;97432.16;4166359;28;20646;-89
2022/04/06 01:06:57;;;;;;;13.43;10.73;;;;;;;10.57;97.55;97431.91;4184559;28;20629;-89
2022/04/06 01:09:00;;;;;;;12.50;11.13;;;;;;;10.57;97.29;97422.31;4167694;28;21311;-89
2022/04/06 01:11:03;;;;;;;12.53;11.33;;;;;;;10.58;97.69;97420.53;4165347;28;21236;-89
2022/04/06 01:13:07;;;;;;;12.57;10.93;;;;;;;10.57;97.41;97429.28;4155401;28;20627;-89
2022/04/06 01:15:13;;;;;;;12.70;11.07;;;;;;;10.57;97.49;97422.31;4155991;28;20634;-88
2022/04/06 01:17:16;;;;;;;12.00;10.77;;;;;;;10.60;96.86;97426.44;4168260;28;20650;-89
2022/04/06 01:19:20;;;;;;;12.90;11.60;;;;;;;10.62;97.80;97433.22;4186714;28;20629;-89
2022/04/06 01:21:25;;;;;;;14.70;11.73;;;;;;;10.61;98.23;97435.94;4146277;28;20642;-89
2022/04/06 01:23:30;;;;;;;12.57;11.27;;;;;;;10.60;97.15;97436.88;4168570;28;21207;-89
2022/04/06 01:25:38;;;;;;;12.13;10.77;;;;;;;10.58;98.21;97429.19;4171637;28;21217;-88
2022/04/06 01:27:41;;;;;;;14.30;12.80;;;;;;;10.58;97.06;97428.34;4181878;28;20633;-89
2022/04/06 01:29:45;;;;;;;13.20;11.87;;;;;;;10.57;97.30;97427.53;4153329;28;20641;-89
2022/04/06 01:31:48;;;;;;;13.47;12.13;;;;;;;10.57;97.89;97422.31;4152625;28;20635;-89
2022/04/06 01:33:51;;;;;;;15.07;13.53;;;;;;;10.57;97.24;97422.31;4167038;28;21242;-89
2022/04/06 01:35:54;;;;;;;13.80;12.40;;;;;;;10.58;98.46;97423.13;4182822;28;20637;-89
2022/04/06 01:37:57;;;;;;;14.13;12.67;;;;;;;10.54;97.02;97422.56;4167588;28;20738;-89
2022/04/06 01:40:03;;;;;;;14.90;12.30;;;;;;;10.55;97.02;97426.00;4164548;28;21202;-88
2022/04/06 01:42:08;;;;;;;11.60;10.40;;;;;;;10.48;97.80;97424.84;4170868;28;20639;-89
2022/04/06 01:44:11;;;;;;;13.77;12.10;;;;;;;10.44;97.48;97426.00;4169092;28;22001;-89
2022/04/06 01:46:14;;;;;;;13.93;12.43;;;;;;;10.43;97.39;97414.78;4151884;28;20646;-89
2022/04/06 01:48:18;;;;;;;14.00;12.50;;;;;;;10.46;97.75;97413.69;4150116;28;20775;-89
2022/04/06 01:52:43;;;;;;;15.03;12.57;;;;;;;10.46;98.85;97413.69;4168543;28;20619;-89
2022/04/06 01:54:48;;;;;;;13.00;11.57;;;;;;;10.47;98.40;97416.16;4174599;28;21212;-89
2022/04/06 01:56:53;;;;;;;14.03;12.57;;;;;;;10.47;97.63;97410.13;4189024;28;20709;-89
2022/04/06 01:58:57;;;;;;;13.83;12.53;;;;;;;10.49;97.51;97408.22;4172890;28;20630;-89
2022/04/06 02:01:00;;;;;;;13.27;11.90;;;;;;;10.49;98.56;97408.22;4157115;28;21091;-89
2022/04/06 02:03:04;;;;;;;13.13;11.70;;;;;;;10.50;98.37;97407.28;4168906;28;20634;-89
2022/04/06 02:05:08;;;;;;;13.27;11.80;;;;;;;10.50;97.89;97413.31;4163024;28;20637;-89
2022/04/06 02:07:13;;;;;;;13.60;12.20;;;;;;;10.50;97.72;97402.88;4156697;28;20635;-88
2022/04/06 02:09:17;;;;;;;13.13;11.80;;;;;;;10.51;97.45;97407.16;4173859;28;20628;-89
2022/04/06 02:11:20;;;;;;;12.77;11.47;;;;;;;10.50;98.33;97402.88;4153300;28;20648;-89
2022/04/06 02:13:26;;;;;;;12.87;11.57;;;;;;;10.54;99.16;97408.69;4155717;28;23686;-89
2022/04/06 02:15:30;;;;;;;13.60;11.53;;;;;;;10.56;98.59;97409.41;4172152;28;20625;-89
2022/04/06 02:17:34;;;;;;;17.00;15.33;;;;;;;10.53;98.74;97405.25;4148847;28;20659;-89
2022/04/06 02:19:37;;;;;;;16.83;13.30;;;;;;;10.55;98.18;97413.78;4186162;28;21057;-88
2022/04/06 02:21:41;;;;;;;16.60;14.90;;;;;;;10.57;98.77;97411.03;4154606;28;20742;-88
2022/04/06 02:23:44;;;;;;;14.00;11.77;;;;;;;10.57;97.23;97405.81;4169076;28;20745;-88
2022/04/06 02:25:48;;;;;;;12.20;11.00;;;;;;;10.53;98.49;97402.66;4160808;28;20637;-87
2022/04/06 02:27:53;;;;;;;11.33;10.23;;;;;;;10.53;97.95;97397.44;4156421;28;20734;-88
2022/04/06 02:30:00;;;;;;;12.53;10.93;;;;;;;10.54;97.25;97393.03;4170365;28;20646;-88
2022/04/06 02:32:04;;;;;;;13.00;11.60;;;;;;;10.49;98.06;97388.22;4187437;28;20641;-87
2022/04/06 02:34:07;;;;;;;14.67;12.17;;;;;;;10.43;97.70;97386.09;4169864;28;20674;-88
2022/04/06 02:36:11;;;;;;;13.20;11.80;;;;;;;10.43;98.39;97395.66;4153789;28;20987;-89
2022/04/06 02:38:14;;;;;;;12.93;11.63;;;;;;;10.43;98.50;97395.66;4156197;28;20744;-89
2022/04/06 02:40:17;;;;;;;12.47;11.27;;;;;;;10.47;98.58;97389.28;4160097;28;20663;-89
2022/04/06 02:42:20;;;;;;;12.00;10.80;;;;;;;10.49;98.39;97392.59;4175423;28;20726;-88
2022/04/06 02:44:24;;;;;;;14.00;12.33;;;;;;;10.49;98.09;97387.38;4161349;28;21242;-88
2022/04/06 02:46:28;;;;;;;12.50;11.20;;;;;;;10.52;98.44;97397.56;4176768;28;21233;-89
2022/04/06 02:48:32;;;;;;;12.43;11.13;;;;;;;10.50;98.91;97389.03;4155092;28;20688;-89
2022/04/06 02:50:35;;;;;;;13.10;11.70;;;;;;;10.51;97.42;97390.69;4197249;28;21220;-89
2022/04/06 02:52:38;;;;;;;12.53;11.37;;;;;;;10.51;98.78;97383.69;4156035;28;21422;-89
2022/04/06 02:54:41;;;;;;;11.67;10.50;;;;;;;10.53;97.62;97379.19;4186479;28;22410;-89
2022/04/06 02:56:45;;;;;;;18.90;16.97;;;;;;;10.56;98.81;97383.34;4151564;28;21093;-88
2022/04/06 02:58:49;;;;;;;24.60;22.37;;;;;;;10.57;98.30;97369.31;4155312;28;20739;-89
2022/04/06 03:00:54;;;;;;;14.10;12.60;;;;;;;10.54;98.08;97374.78;4170424;28;20645;-88
2022/04/06 03:02:59;;;;;;;16.23;14.63;;;;;;;10.54;98.33;97366.97;4156407;28;20713;-89
2022/04/06 03:05:02;;;;;;;27.37;24.77;;;;;;;10.56;98.96;97373.72;4156923;28;20638;-89
2022/04/06 03:07:05;;;;;;;37.40;34.10;;;;;;;10.58;99.26;97365.78;4172543;28;20650;-89
2022/04/06 03:09:09;;;;;;;14.40;13.00;;;;;;;10.60;98.38;97369.09;4169718;28;20743;-89
2022/04/06 03:11:12;;;;;;;13.90;12.60;;;;;;;10.61;98.32;97360.31;4158683;28;20648;-89
2022/04/06 03:13:15;;;;;;;26.27;23.80;;;;;;;10.61;97.62;97362.94;4168881;28;20734;-88
2022/04/06 03:15:19;;;;;;;10.43;9.27;;;;;;;10.56;96.62;97363.28;4158799;28;20766;-88
2022/04/06 03:17:22;;;;;;;10.37;9.00;;;;;;;10.54;97.52;97353.94;4153350;28;20729;-88
2022/04/06 03:19:27;;;;;;;10.20;8.80;;;;;;;10.46;97.09;97349.34;4190054;28;20637;-88
2022/04/06 03:21:30;;;;;;;10.33;9.20;;;;;;;10.46;97.41;97346.75;4190363;28;20993;-88
2022/04/06 03:23:33;;;;;;;9.30;8.40;;;;;;;10.46;96.97;97340.69;4157690;28;20643;-89
2022/04/06 03:25:36;;;;;;;10.67;9.13;;;;;;;10.47;97.59;97352.78;4169712;28;20634;-88
2022/04/06 03:27:40;;;;;;;9.97;9.00;;;;;;;10.46;97.77;97341.53;4154640;28;20639;-88
2022/04/06 03:29:43;;;;;;;9.90;8.90;;;;;;;10.46;97.97;97345.91;4151744;28;20636;-89
2022/04/06 03:31:46;;;;;;;9.70;8.47;;;;;;;10.48;97.52;97342.22;4153761;28;20651;-88
2022/04/06 03:33:50;;;;;;;9.70;8.70;;;;;;;10.48;97.53;97346.63;4154704;28;20675;-88
2022/04/06 03:35:54;;;;;;;10.10;8.33;;;;;;;10.44;97.27;97342.59;4155015;28;20646;-89
2022/04/06 03:37:58;;;;;;;9.37;8.00;;;;;;;10.46;96.70;97340.69;4189995;28;20658;-88
2022/04/06 03:40:02;;;;;;;13.13;9.40;;;;;;;10.48;97.35;97336.19;4154979;28;21188;-89
2022/04/06 03:42:06;;;;;;;10.67;8.67;;;;;;;10.47;97.29;97344.97;4186429;28;20630;-88
2022/04/06 03:44:18;;;;;;;10.10;9.10;;;;;;;10.48;97.13;97342.22;4168829;28;20734;-88
2022/04/06 03:46:30;;;;;;;9.53;8.53;;;;;;;10.49;96.62;97328.25;4150972;28;20666;-88
2022/04/06 03:48:52;;;;;;;9.10;8.20;;;;;;;10.47;96.14;97326.72;4147866;28;21179;-90
2022/04/06 03:51:08;;;;;;;10.13;9.00;;;;;;;10.46;96.38;97315.47;4168823;28;20666;-89
2022/04/06 03:53:28;;;;;;;10.20;8.90;;;;;;;10.44;96.26;97322.56;4173424;28;20686;-89
2022/04/06 03:56:10;;;;;;;10.67;8.40;;;;;;;10.41;97.10;97327.19;4150741;28;20646;-88
2022/04/06 03:58:21;;;;;;;9.60;8.60;;;;;;;10.40;96.77;97322.94;4167385;28;20768;-89
2022/04/06 04:00:31;;;;;;;9.70;8.53;;;;;;;10.49;96.36;97327.41;4149049;28;20699;-89
2022/04/06 04:02:37;;;;;;;9.07;8.17;;;;;;;10.50;96.59;97323.88;4154280;28;21233;-89
2022/04/06 04:04:41;;;;;;;12.53;9.70;;;;;;;10.54;97.43;97328.72;4154319;28;20629;-88
2022/04/06 04:06:45;;;;;;;10.07;8.40;;;;;;;10.58;96.83;97329.28;4153115;28;20643;-89
2022/04/06 04:08:48;;;;;;;10.67;8.87;;;;;;;10.58;96.11;97324.06;4177179;28;20639;-89
2022/04/06 04:10:52;;;;;;;10.87;9.17;;;;;;;10.59;97.40;97321.34;4151276;28;20648;-89
2022/04/06 04:12:55;;;;;;;10.40;9.40;;;;;;;10.61;97.47;97318.59;4168970;28;20688;-89
2022/04/06 04:14:59;;;;;;;9.70;8.70;;;;;;;10.65;96.76;97333.06;4166184;28;20745;-89
2022/04/06 04:17:02;;;;;;;11.30;9.60;;;;;;;10.67;97.03;97323.31;4163426;28;20686;-88
2022/04/06 04:19:05;;;;;;;10.13;9.13;;;;;;;10.70;96.40;97325.69;4167076;28;20651;-88
2022/04/06 04:23:30;;;;;;;11.90;9.70;;;;;;;10.76;95.84;97318.19;4170413;28;20653;-89
2022/04/06 04:25:34;;;;;;;12.03;10.50;;;;;;;10.76;96.94;97319.97;4188091;28;20713;-89
2022/04/06 04:27:37;;;;;;;13.37;10.67;;;;;;;10.77;96.13;97313.81;4173466;28;20663;-89
2022/04/06 04:29:41;;;;;;;18.37;14.37;;;;;;;10.78;96.61;97311.09;4153165;28;20724;-89
2022/04/06 04:31:44;;;;;;;17.47;13.53;;;;;;;10.79;96.88;97323.16;4188041;28;21327;-88
2022/04/06 04:33:47;;;;;;;24.20;15.80;;;;;;;10.81;95.67;97319.47;4153980;28;20675;-88
2022/04/06 04:35:51;;;;;;;21.50;15.37;;;;;;;10.82;95.97;97315.06;4182960;28;21311;-89
2022/04/06 04:37:54;;;;;;;22.30;15.73;;;;;;;10.83;95.17;97325.38;4182649;28;21049;-88
2022/04/06 04:39:59;;;;;;;22.43;14.60;;;;;;;10.82;95.51;97318.53;4185544;28;21285;-88
2022/04/06 04:42:02;;;;;;;15.90;12.43;;;;;;;10.84;94.97;97311.41;4154738;28;20717;-89
2022/04/06 04:44:05;;;;;;;16.67;12.50;;;;;;;10.86;96.15;97313.88;4151167;28;21226;-87
2022/04/06 04:46:08;;;;;;;17.63;13.00;;;;;;;10.85;95.80;97312.22;4150704;28;20636;-86
2022/04/06 04:48:12;;;;;;;18.03;12.80;;;;;;;10.85;95.38;97315.69;4165915;28;21385;-88
2022/04/06 04:50:19;;;;;;;18.10;13.70;;;;;;;10.86;96.01;97313.88;4168560;28;21215;-86
2022/04/06 04:52:22;;;;;;;15.47;12.40;;;;;;;10.87;95.58;97305.13;4154680;28;21308;-84
2022/04/06 04:54:26;;;;;;;13.70;11.60;;;;;;;10.87;95.02;97311.16;4154040;28;20660;-84
2022/04/06 04:56:33;;;;;;;14.57;11.10;;;;;;;10.86;95.68;97306.88;4165203;28;20643;-83
2022/04/06 04:58:37;;;;;;;12.73;10.10;;;;;;;10.87;95.60;97311.16;4150606;28;20695;-86
2022/04/06 05:00:40;;;;;;;14.17;10.83;;;;;;;10.88;96.55;97306.75;4165627;28;21065;-85
2022/04/06 05:02:43;;;;;;;12.57;9.67;;;;;;;10.89;94.90;97309.22;4163563;28;20630;-86
2022/04/06 05:04:46;;;;;;;13.23;10.13;;;;;;;10.87;96.41;97308.53;4151540;28;21444;-87
2022/04/06 05:06:50;;;;;;;11.13;10.00;;;;;;;10.85;95.21;97313.06;4163722;28;20666;-88
2022/04/06 05:08:53;;;;;;;10.17;9.10;;;;;;;10.86;96.11;97314.69;4149111;28;20637;-89
2022/04/06 05:10:56;;;;;;;9.50;8.50;;;;;;;10.89;94.81;97311.03;4168065;28;21188;-88
2022/04/06 05:13:01;;;;;;;13.33;11.60;;;;;;;10.89;96.44;97317.06;4169020;28;21002;-88
2022/04/06 05:15:06;;;;;;;11.07;9.90;;;;;;;10.87;96.29;97313.75;4147527;28;20711;-85
2022/04/06 05:17:09;;;;;;;11.27;9.70;;;;;;;10.87;96.02;97312.94;4150919;28;20740;-86
2022/04/06 05:19:12;;;;;;;10.40;9.30;;;;;;;10.87;96.84;97312.94;4187892;28;20667;-85
2022/04/06 05:21:15;;;;;;;12.73;9.30;;;;;;;10.90;95.32;97310.09;4171895;28;20731;-86
2022/04/06 05:23:19;;;;;;;10.20;8.70;;;;;;;10.89;95.27;97304.03;4185418;28;20637;-85
2022/04/06 05:25:22;;;;;;;11.33;8.57;;;;;;;10.91;95.24;97304.72;4179952;28;21284;-89
2022/04/06 05:27:25;;;;;;;11.60;9.10;;;;;;;10.92;94.96;97306.38;4185295;28;20645;-86
2022/04/06 05:29:30;;;;;;;10.60;9.50;;;;;;;10.92;94.75;97297.72;4175863;28;20624;-86
2022/04/06 05:31:33;;;;;;;11.77;9.43;;;;;;;10.93;95.99;97304.59;4191757;28;20988;-87
2022/04/06 05:33:37;;;;;;;11.00;9.90;;;;;;;10.93;94.67;97295.00;4175313;28;20668;-87
2022/04/06 05:35:41;;;;;;;10.73;9.63;;;;;;;10.94;95.62;97296.63;4160137;28;21106;-86
2022/04/06 05:37:46;;;;;;;10.37;9.20;;;;;;;10.98;94.74;97302.44;4161121;28;20623;-86
2022/04/06 05:39:49;;;;;;;12.00;9.90;;;;;;;10.98;94.57;97307.66;4188420;28;20875;-85
2022/04/06 05:41:52;;;;;;;10.73;9.63;;;;;;;10.98;94.57;97303.25;4161204;28;20641;-86
2022/04/06 05:43:55;;;;;;;10.77;9.60;;;;;;;11.00;94.59;97303.94;4157796;28;20640;-85
2022/04/06 05:46:00;;;;;;;10.73;9.63;;;;;;;11.03;95.17;97308.91;4158311;28;21207;-84
2022/04/06 05:48:04;;;;;;;11.37;9.73;;;;;;;11.06;94.78;97308.66;4162014;28;21301;-87
2022/04/06 05:50:09;;;;;;;10.70;9.37;;;;;;;11.08;95.70;97303.31;4184849;28;20642;-85
2022/04/06 05:52:12;;;;;;;12.10;10.80;;;;;;;11.10;95.84;97304.03;4157324;28;20639;-86
2022/04/06 05:54:15;;;;;;;11.17;9.40;;;;;;;11.12;94.50;97308.16;4170502;28;20710;-85
2022/04/06 05:56:18;;;;;;;12.80;9.70;;;;;;;11.13;94.84;97315.06;4151564;28;20736;-85
2022/04/06 05:58:22;;;;;;;12.73;10.93;;;;;;;11.15;95.06;97307.09;4187064;28;21546;-85
2022/04/06 06:00:25;;;;;;;9.87;8.90;;;;;;;11.18;95.82;97305.03;4171837;28;20661;-85
2022/04/06 06:02:30;;;;;;;12.50;9.27;;;;;;;11.21;94.27;97312.63;4168527;28;20643;-85
2022/04/06 06:04:34;;;;;;;9.83;8.83;;;;;;;11.23;94.39;97313.34;4155024;28;20682;-85
2022/04/06 06:06:37;;;;;;;11.90;10.47;;;;;;;11.27;96.20;97311.28;4157661;28;20639;-85
2022/04/06 06:08:40;;;;;;;12.97;9.70;;;;;;;11.28;95.25;97313.78;4174916;28;21290;-85
2022/04/06 06:10:44;;;;;;;11.07;9.97;;;;;;;11.27;95.93;97310.34;4173103;28;21254;-84
2022/04/06 06:12:47;;;;;;;10.90;9.80;;;;;;;11.28;94.73;97316.38;4166819;28;21475;-84
2022/04/06 06:14:50;;;;;;;11.50;10.30;;;;;;;11.31;95.63;97316.13;4184748;28;20642;-84
2022/04/06 06:16:53;;;;;;;11.87;10.57;;;;;;;11.33;96.73;97316.81;4186324;28;20695;-86
2022/04/06 06:18:59;;;;;;;12.87;10.00;;;;;;;11.35;94.48;97318.34;4170705;28;21203;-84
2022/04/06 06:21:04;;;;;;;10.70;9.60;;;;;;;11.37;95.20;97305.19;4151003;28;20663;-87
2022/04/06 06:23:08;;;;;;;11.13;10.00;;;;;;;11.40;94.83;97310.97;4171357;28;20640;-87
2022/04/06 06:25:11;;;;;;;12.10;10.90;;;;;;;11.37;94.86;97307.78;4165894;28;20641;-85
2022/04/06 06:27:19;;;;;;;14.80;13.13;;;;;;;11.42;93.97;97313.44;4154398;28;20612;-86
2022/04/06 06:29:23;;;;;;;12.20;10.93;;;;;;;11.43;94.84;97309.88;4151740;28;20666;-86
2022/04/06 06:31:27;;;;;;;15.37;12.40;;;;;;;11.44;94.83;97312.38;4162384;28;20641;-85
2022/04/06 06:33:31;;;;;;;15.10;12.30;;;;;;;11.47;95.64;97312.16;4157163;28;20675;-85
2022/04/06 06:35:36;;;;;;;13.47;11.93;;;;;;;11.51;94.73;97308.28;4157804;28;21354;-85
2022/04/06 06:37:46;;;;;;;16.90;12.73;;;;;;;11.52;96.42;97307.34;4168823;28;20974;-86
2022/04/06 06:39:52;;;;;;;16.47;14.23;;;;;;;11.53;96.14;97314.25;4157741;28;20688;-85
2022/04/06 06:41:55;;;;;;;13.97;11.30;;;;;;;11.56;94.76;97310.53;4158444;28;20670;-84
2022/04/06 06:43:59;;;;;;;16.60;13.50;;;;;;;11.60;94.80;97304.09;4187658;28;20652;-85
2022/04/06 06:46:02;;;;;;;19.03;16.13;;;;;;;11.66;93.80;97308.78;4185662;28;20814;-84
2022/04/06 06:48:06;;;;;;;13.63;12.23;;;;;;;11.69;95.24;97305.94;4177033;28;20617;-85
2022/04/06 06:50:10;;;;;;;9.30;8.40;;;;;;;11.72;94.58;97303.06;4176107;28;20669;-86
2022/04/06 06:52:15;;;;;;;10.50;8.33;;;;;;;11.68;92.64;97301.66;4188087;28;20639;-85
2022/04/06 06:54:19;;;;;;;9.00;8.10;;;;;;;11.62;93.58;97307.38;4159561;28;21234;-85
2022/04/06 06:56:22;;;;;;;9.00;7.90;;;;;;;11.61;94.80;97306.56;4168163;28;21192;-86
2022/04/06 06:58:25;;;;;;;9.97;8.87;;;;;;;11.55;92.69;97299.25;4170881;28;21212;-85
2022/04/06 07:00:28;;;;;;;10.00;9.00;;;;;;;11.56;93.79;97295.69;4155088;28;20645;-84
2022/04/06 07:02:32;;;;;;;10.07;9.07;;;;;;;11.54;92.73;97302.00;4190525;28;21123;-85
2022/04/06 07:04:35;;;;;;;10.90;9.80;;;;;;;11.56;95.28;97306.16;4172988;28;20630;-85
2022/04/06 07:06:38;;;;;;;10.13;8.70;;;;;;;11.55;93.57;97303.66;4150019;28;20643;-86
2022/04/06 07:08:43;;;;;;;11.10;9.50;;;;;;;11.49;95.02;97294.56;4172161;28;21193;-86
2022/04/06 07:10:47;;;;;;;11.33;9.73;;;;;;;11.50;94.33;97306.66;4158424;28;20638;-86
2022/04/06 07:12:50;;;;;;;11.57;9.70;;;;;;;11.47;94.75;97306.06;4180652;28;20730;-84
2022/04/06 07:14:53;;;;;;;11.00;9.90;;;;;;;11.43;92.89;97304.66;4163940;28;21256;-84
2022/04/06 07:16:58;;;;;;;12.63;9.57;;;;;;;11.44;94.19;97304.53;4171003;28;20670;-85
2022/04/06 07:19:01;;;;;;;12.57;10.20;;;;;;;11.43;93.76;97294.22;4160584;28;21383;-84
2022/04/06 07:21:05;;;;;;;11.60;10.40;;;;;;;11.42;95.50;97303.81;4183503;28;20659;-84
2022/04/06 07:23:08;;;;;;;10.90;9.80;;;;;;;11.42;94.51;97292.56;4171575;28;21221;-83
2022/04/06 07:25:13;;;;;;;10.57;9.03;;;;;;;11.30;93.92;97302.22;4169782;28;20644;-84
2022/04/06 07:27:17;;;;;;;13.50;9.77;;;;;;;11.27;94.36;97291.22;4149351;28;20731;-84
2022/04/06 07:29:21;;;;;;;10.73;9.63;;;;;;;11.27;93.78;97293.84;4164953;28;20643;-84
2022/04/06 07:31:24;;;;;;;9.73;8.60;;;;;;;11.25;95.34;97287.94;4183662;28;21189;-84
2022/04/06 07:33:28;;;;;;;13.37;8.77;;;;;;;11.25;93.92;97293.16;4164928;28;20663;-84
2022/04/06 07:35:32;;;;;;;10.90;9.13;;;;;;;11.27;95.02;97288.63;4182325;28;20627;-84
2022/04/06 07:37:38;;;;;;;9.90;8.73;;;;;;;11.32;93.70;97291.66;4182477;28;20646;-84
2022/04/06 07:39:42;;;;;;;9.63;8.67;;;;;;;11.36;94.87;97288.66;4168845;28;20623;-84
2022/04/06 07:41:46;;;;;;;9.90;8.57;;;;;;;11.42;93.72;97285.53;4166272;28;21146;-84
2022/04/06 07:43:49;;;;;;;9.17;8.20;;;;;;;11.44;94.35;97293.25;4168558;28;20674;-84
2022/04/06 07:45:53;;;;;;;11.27;8.30;;;;;;;11.50;93.71;97292.75;4183907;28;21450;-85
2022/04/06 07:47:56;;;;;;;8.40;7.60;;;;;;;11.50;93.30;97291.00;4165645;28;20737;-84
2022/04/06 07:50:00;;;;;;;8.23;7.27;;;;;;;11.51;93.27;97292.63;4145540;28;21491;-83
2022/04/06 07:52:04;;;;;;;8.30;7.50;;;;;;;11.51;92.16;97281.38;4183096;28;20646;-84
2022/04/06 07:54:08;;;;;;;8.20;7.30;;;;;;;11.51;93.96;97286.59;4181700;28;20674;-85
2022/04/06 07:56:11;;;;;;;9.50;7.20;;;;;;;11.54;93.42;97281.94;4151094;28;21220;-84
2022/04/06 07:58:18;;;;;;;8.00;6.70;;;;;;;11.55;94.27;97273.16;4168782;28;20642;-84
2022/04/06 08:00:21;;;;;;;9.40;7.57;;;;;;;11.57;92.50;97284.28;4167463;28;20959;-84
2022/04/06 08:02:25;;;;;;;9.30;6.80;;;;;;;11.66;92.87;97290.50;4152459;28;21283;-83
2022/04/06 08:04:28;;;;;;;8.80;6.37;;;;;;;11.73;91.71;97286.41;4163012;28;20644;-85
2022/04/06 08:06:32;;;;;;;7.73;6.77;;;;;;;11.79;93.00;97278.88;4163717;28;21484;-84
2022/04/06 08:08:36;;;;;;;7.67;6.30;;;;;;;11.75;92.61;97288.75;4165264;28;20678;-84
2022/04/06 08:10:39;;;;;;;6.90;6.27;;;;;;;11.75;91.96;97287.13;4148967;28;20725;-84
2022/04/06 08:12:43;;;;;;;5.40;4.90;;;;;;;11.75;92.13;97293.97;4176143;28;20666;-84
2022/04/06 08:14:48;;;;;;;5.30;4.80;;;;;;;11.75;91.54;97284.50;4164369;28;21189;-85
2022/04/06 08:16:52;;;;;;;5.60;4.77;;;;;;;11.73;90.38;97287.25;4151119;28;20743;-84
2022/04/06 08:18:55;;;;;;;6.30;5.20;;;;;;;11.80;91.04;97294.44;4173183;28;21006;-84
2022/04/06 08:20:59;;;;;;;5.97;4.93;;;;;;;11.89;89.80;97293.63;4181687;28;20704;-84
2022/04/06 08:23:02;;;;;;;4.83;4.07;;;;;;;11.94;89.99;97281.00;4168379;28;20647;-85
2022/04/06 08:25:06;;;;;;;5.10;4.20;;;;;;;12.02;91.12;97283.75;4165742;28;21016;-84
2022/04/06 08:27:31;;;;;;;5.47;4.63;;;;;;;12.03;90.70;97279.38;4187047;28;20616;-84
2022/04/06 08:29:34;;;;;;;4.90;3.60;;;;;;;12.04;90.24;97284.47;4172421;28;21117;-84
2022/04/06 08:31:39;;;;;;;4.10;3.10;;;;;;;12.10;90.00;97289.13;4170220;28;21049;-84
2022/04/06 08:33:42;;;;;;;6.40;3.60;;;;;;;12.08;89.79;97288.47;4189283;28;21299;-84
2022/04/06 08:35:46;;;;;;;3.67;3.00;;;;;;;12.08;88.48;97285.03;4183298;28;20681;-84
2022/04/06 08:37:50;;;;;;;3.90;3.43;;;;;;;12.11;88.90;97285.56;4172613;28;20749;-84
2022/04/06 08:39:53;;;;;;;4.20;3.80;;;;;;;12.13;90.85;97280.22;4162776;28;20987;-84
2022/04/06 08:42:11;;;;;;;4.97;4.07;;;;;;;12.18;89.35;97276.25;4163921;28;20664;-84
2022/04/06 08:44:32;;;;;;;4.30;3.30;;;;;;;12.25;90.27;97279.97;4183292;28;21016;-84
2022/04/06 08:46:37;;;;;;;4.00;3.40;;;;;;;12.33;90.25;97274.91;4185832;28;20635;-84
2022/04/06 08:48:44;;;;;;;4.70;3.73;;;;;;;12.39;88.77;97274.38;4171469;28;20623;-84
2022/04/06 08:50:49;;;;;;;6.27;4.60;;;;;;;12.50;89.57;97274.25;4184305;28;21517;-84
2022/04/06 08:52:52;;;;;;;6.17;4.63;;;;;;;12.61;90.12;97271.47;4150246;28;20645;-84
2022/04/06 08:55:03;;;;;;;7.43;5.77;;;;;;;12.67;89.92;97276.16;4165604;28;20654;-84
2022/04/06 08:57:06;;;;;;;5.83;4.93;;;;;;;12.71;88.55;97273.94;4184329;28;20724;-84
2022/04/06 08:59:09;;;;;;;5.63;4.87;;;;;;;12.83;89.14;97270.28;4167727;28;20641;-84
2022/04/06 09:01:13;;;;;;;6.17;5.20;;;;;;;12.86;87.34;97275.22;4180666;28;20679;-84
2022/04/06 09:03:17;;;;;;;6.47;4.40;;;;;;;12.79;86.28;97274.13;4160686;28;20628;-84
2022/04/06 09:05:25;;;;;;;4.90;4.17;;;;;;;12.74;86.53;97268.44;4186453;28;20663;-84
2022/04/06 09:07:28;;;;;;;3.80;3.03;;;;;;;12.79;87.24;97274.13;4182252;28;20640;-84
2022/04/06 09:09:32;;;;;;;3.40;2.93;;;;;;;12.88;87.41;97270.66;4168312;28;20636;-84
2022/04/06 09:11:42;;;;;;;3.90;3.37;;;;;;;12.90;87.62;97275.75;4185209;28;20676;-84
2022/04/06 09:13:47;;;;;;;3.57;3.23;;;;;;;12.90;86.42;97270.53;4180096;28;20629;-84
2022/04/06 09:15:53;;;;;;;4.17;3.43;;;;;;;12.86;85.81;97262.13;4150319;28;20676;-84
2022/04/06 09:18:01;;;;;;;7.50;4.30;;;;;;;12.83;86.00;97266.84;4181921;28;20616;-84
2022/04/06 09:20:05;;;;;;;4.27;3.40;;;;;;;12.89;86.30;97269.72;4168436;28;20654;-84
2022/04/06 09:22:18;;;;;;;4.30;3.23;;;;;;;12.98;86.89;97270.69;4166050;28;20727;-84
2022/04/06 09:24:25;;;;;;;6.43;3.10;;;;;;;13.00;85.80;97264.31;4185475;28;20651;-84
2022/04/06 09:26:28;;;;;;;3.30;2.60;;;;;;;13.01;85.32;97268.59;4150590;28;20634;-84
2022/04/06 09:28:32;;;;;;;3.43;2.80;;;;;;;13.07;84.82;97265.44;4162218;28;20644;-84
2022/04/06 09:30:36;;;;;;;4.43;3.27;;;;;;;13.13;84.94;97270.09;4180261;28;20620;-85
2022/04/06 09:32:41;;;;;;;5.27;2.43;;;;;;;13.26;85.28;97271.47;4187900;28;20633;-85
2022/04/06 09:34:46;;;;;;;4.43;3.57;;;;;;;13.27;84.21;97264.44;4178412;28;20663;-83
2022/04/06 09:36:51;;;;;;;3.27;2.73;;;;;;;13.47;83.75;97264.25;4180370;28;21362;-84
2022/04/06 09:38:56;;;;;;;3.30;2.70;;;;;;;13.67;83.70;97257.97;4151796;28;20650;-83
2022/04/06 09:41:03;;;;;;;3.23;2.60;;;;;;;13.74;81.48;97256.41;4159602;28;20668;-83
2022/04/06 09:43:07;;;;;;;3.27;2.30;;;;;;;14.01;83.62;97253.78;4159246;28;20641;-83